Řízení letového provozu České republiky
OPMET data - Ceska Republika Aktualizace: 25.07.2017 10:30:20  UTC
SIGMET / AIRMET - NIL
Warning / Vystraha
VYSTRAHA C. 2 PRO LKAA PLATNOST 250800/251200 RYCHLOST VYSKOVEHO PROUDENI V ZAPADNI A CENTRALNI CASTI LKAA SE V HLADINACH MEZI FL320-FL350 POHYBUJE KOLEM 80KT ZE SMERU SE-S, TENDENCE POZVOLNE SLABNUTI.=
 
METAR / SPECI
METAR LKCV 251000Z 26013KT 9999 SCT027 OVC060 17/10 Q1004=
METAR LKKB 251000Z 24014KT 220V280 9999 SCT031 BKN044 17/10 Q1004 NOSIG =
METAR LKKU NIL
METAR LKKV 251030Z 26009KT 230V290 9999 SCT017 BKN025 13/10 Q1004 RMK REG QNH 1001=
METAR LKLN 251000Z AUTO 25010KT 220V300 9999 OVC030 16/10 Q1006=
METAR LKMT 251030Z 23014KT 9999 BKN023 17/12 Q1004 NOSIG RMK REG QNH 1001=
METAR COR LKNA 251000Z 27017KT 9999 SCT035 BKN050 16/07 Q1005 NOSIG=
METAR LKPD 251000Z 27010KT 9999 SCT025 BKN043 18/10 Q1004 NOSIG =
METAR LKPR 251030Z 24018KT 9999 SCT030 BKN043 17/10 Q1004 NOSIG RMK REG QNH 1001=
METAR LKTB 251030Z 26014KT 9999 FEW042 BKN049 19/10 Q1005 NOSIG RMK REG QNH 1001=
METAR LKVO 251000Z 26016KT 9999 FEW028 BKN032 17/11 Q1004=
TAF
TAF LKCV NIL
TAF LKKB 250500Z 2506/2606 24010G20KT CAVOK      BECMG 2508/2510 BKN033      BECMG 2518/2520 23008KT=
TAF LKKU NIL
TAF LKKV 250500Z 2506/2612 25008KT 9999 SCT008 BKN020      TEMPO 2507/2521 26014G24KT 6000 SHRA SCT016TCU      PROB30 TEMPO 2508/2517 3000 SHRA SCT012CB      TEMPO 2600/2612 6000 SHRA SCT007 BKN015=
TAF LKLN NIL
TAF LKMT 250500Z 2506/2612 23012KT 9999 BKN030      TEMPO 2506/2516 24014G24KT 4000 SHRA BKN015      PROB30 TEMPO 2607/2612 24014G24KT 4000 SHRA SCT020TCU=
TAF LKNA 250500Z 2506/2606 27015KT CAVOK      BECMG 2506/2508 28018G30KT      TEMPO 2509/2517 9999 BKN045      BECMG 2520/2522 27008KT=
TAF LKPD 250500Z 2506/2606 27012KT CAVOK      TEMPO 2507/2510 SCT022      TEMPO 2510/2513 BKN040      PROB40 TEMPO 2506/2522 26014G26KT=
TAF LKPR 250500Z 2506/2612 24012KT CAVOK      TEMPO 2506/2600 25016G26KT 9999 SCT033      TEMPO 2600/2612 6000 SHRA SCT014 BKN020=
TAF LKTB 250500Z 2506/2612 26008KT CAVOK      PROB30 TEMPO 2506/2516 5000 SHRA BKN010 SCT020TCU      TEMPO 2608/2612 5000 SHRA SCT014 BKN020=
TAF LKVO NIL